createdAt,value
2022-09-11T00:01:29.331Z,10.60
2022-09-11T00:03:56.999Z,11.23
2022-09-11T00:06:29.664Z,9.50
2022-09-11T00:09:00.612Z,10.15
2022-09-11T00:13:57.290Z,8.30
2022-09-11T00:16:26.829Z,8.00
2022-09-11T00:18:54.807Z,8.27
2022-09-11T00:21:22.203Z,7.60
2022-09-11T00:23:50.036Z,8.20
2022-09-11T00:26:17.745Z,8.82
2022-09-11T00:28:45.612Z,8.73
2022-09-11T00:31:15.557Z,7.93
2022-09-11T00:33:44.558Z,7.25
2022-09-11T00:36:13.550Z,7.15
2022-09-11T00:38:40.943Z,7.00
2022-09-11T00:41:09.166Z,7.30
2022-09-11T00:43:56.897Z,7.07
2022-09-11T00:46:31.331Z,7.80
2022-09-11T00:48:58.864Z,7.72
2022-09-11T00:51:27.896Z,8.02
2022-09-11T00:53:57.856Z,8.13
2022-09-11T00:56:27.026Z,8.30
2022-09-11T00:58:55.029Z,8.10
2022-09-11T01:01:22.374Z,7.20
2022-09-11T01:03:51.345Z,8.55
2022-09-11T01:06:20.904Z,8.20
2022-09-11T01:08:48.300Z,8.20
2022-09-11T01:11:21.674Z,9.48
2022-09-11T01:13:52.654Z,8.90
2022-09-11T01:16:22.998Z,8.20
2022-09-11T01:18:54.372Z,8.85
2022-09-11T01:21:33.902Z,9.18
2022-09-11T01:24:08.997Z,8.68
2022-09-11T01:26:43.727Z,9.38
2022-09-11T01:29:18.866Z,9.05
2022-09-11T01:31:52.927Z,10.07
2022-09-11T01:34:23.407Z,8.57
2022-09-11T01:36:54.001Z,9.27
2022-09-11T01:39:22.381Z,9.32
2022-09-11T01:41:53.097Z,9.60
2022-09-11T01:44:24.063Z,9.52
2022-09-11T01:46:53.030Z,9.25
2022-09-11T01:49:23.473Z,8.50
2022-09-11T01:51:53.275Z,10.20
2022-09-11T01:54:22.981Z,8.68
2022-09-11T01:56:52.760Z,10.13
2022-09-11T01:59:26.081Z,8.88
2022-09-11T02:01:55.921Z,8.73
2022-09-11T02:04:27.042Z,9.32
2022-09-11T02:06:57.052Z,9.43
2022-09-11T02:09:27.269Z,9.48
2022-09-11T02:11:56.631Z,9.48
2022-09-11T02:14:28.063Z,9.45
2022-09-11T02:17:01.241Z,9.45
2022-09-11T02:19:30.430Z,9.65
2022-09-11T02:21:58.476Z,9.73
2022-09-11T02:24:27.267Z,9.43
2022-09-11T02:26:56.515Z,9.70
2022-09-11T02:29:24.355Z,9.55
2022-09-11T02:31:53.428Z,9.80
2022-09-11T02:34:23.352Z,9.73
2022-09-11T02:36:56.236Z,8.88
2022-09-11T02:39:27.404Z,9.38
2022-09-11T02:42:01.034Z,9.65
2022-09-11T02:44:33.819Z,9.07
2022-09-11T02:47:08.819Z,9.50
2022-09-11T02:49:42.886Z,10.02
2022-09-11T02:52:13.710Z,9.93
2022-09-11T02:57:11.501Z,8.50
2022-09-11T02:59:41.137Z,9.25
2022-09-11T03:02:13.239Z,9.55
2022-09-11T03:04:41.869Z,8.77
2022-09-11T03:07:09.246Z,9.77
2022-09-11T03:09:36.558Z,9.23
2022-09-11T03:12:05.042Z,10.15
2022-09-11T03:14:32.391Z,10.35
2022-09-11T03:16:59.786Z,11.18
2022-09-11T03:19:28.490Z,11.30
2022-09-11T03:21:55.859Z,11.90
2022-09-11T03:24:23.293Z,11.98
2022-09-11T03:26:50.681Z,12.13
2022-09-11T03:29:18.174Z,13.35
2022-09-11T03:31:45.653Z,12.00
2022-09-11T03:34:13.014Z,12.52
2022-09-11T03:36:41.920Z,13.52
2022-09-11T03:39:09.291Z,13.23
2022-09-11T03:41:37.114Z,13.23
2022-09-11T03:44:04.926Z,12.60
2022-09-11T03:46:33.001Z,13.43
2022-09-11T03:49:00.513Z,13.50
2022-09-11T03:51:27.936Z,13.30
2022-09-11T03:53:57.118Z,13.30
2022-09-11T03:56:24.422Z,12.32
2022-09-11T03:58:55.176Z,12.65
2022-09-11T04:03:50.139Z,11.77
2022-09-11T04:06:17.556Z,12.20
2022-09-11T04:08:45.225Z,11.48
2022-09-11T04:11:14.184Z,11.70
2022-09-11T04:13:43.795Z,11.65
2022-09-11T04:16:12.696Z,11.35
2022-09-11T04:18:40.933Z,11.68
2022-09-11T04:21:09.170Z,11.23
2022-09-11T04:23:36.839Z,10.85
2022-09-11T04:26:05.001Z,11.63
2022-09-11T04:28:33.788Z,12.15
2022-09-11T04:31:03.283Z,12.55
2022-09-11T04:33:30.658Z,11.60
2022-09-11T04:35:58.057Z,11.55
2022-09-11T04:38:25.439Z,12.85
2022-09-11T04:40:53.165Z,12.10
2022-09-11T04:43:20.506Z,13.07
2022-09-11T04:45:49.641Z,12.38
2022-09-11T04:48:17.023Z,12.02
2022-09-11T04:50:44.378Z,12.07
2022-09-11T04:53:11.779Z,12.20
2022-09-11T04:55:39.110Z,11.35
2022-09-11T04:58:06.596Z,11.35
2022-09-11T05:00:35.198Z,11.38
2022-09-11T05:03:03.866Z,12.60
2022-09-11T05:05:31.225Z,11.57
2022-09-11T05:07:58.579Z,12.15
2022-09-11T05:10:27.092Z,12.20
2022-09-11T05:12:54.484Z,11.50
2022-09-11T05:15:21.863Z,11.40
2022-09-11T05:17:50.654Z,12.40
2022-09-11T05:20:19.416Z,12.05
2022-09-11T05:22:47.083Z,12.07
2022-09-11T05:25:14.531Z,12.38
2022-09-11T05:27:41.908Z,12.82
2022-09-11T05:30:09.810Z,12.25
2022-09-11T05:32:37.393Z,11.60
2022-09-11T05:35:05.278Z,11.75
2022-09-11T05:37:33.967Z,11.80
2022-09-11T05:40:01.783Z,12.45
2022-09-11T05:42:29.374Z,12.40
2022-09-11T05:44:56.727Z,12.57
2022-09-11T05:47:24.119Z,11.80
2022-09-11T05:49:51.694Z,12.23
2022-09-11T05:52:19.012Z,11.73
2022-09-11T05:54:47.688Z,12.57
2022-09-11T05:57:15.023Z,12.20
2022-09-11T05:59:42.388Z,12.27
2022-09-11T06:02:11.137Z,12.68
2022-09-11T06:04:38.509Z,11.77
2022-09-11T06:07:05.970Z,11.75
2022-09-11T06:09:33.351Z,11.90
2022-09-11T06:12:02.091Z,11.68
2022-09-11T06:14:29.390Z,11.85
2022-09-11T06:16:57.179Z,11.05
2022-09-11T06:19:24.647Z,11.10
2022-09-11T06:21:51.970Z,12.38
2022-09-11T06:24:19.615Z,11.23
2022-09-11T06:26:46.962Z,11.98
2022-09-11T06:29:16.114Z,11.35
2022-09-11T06:31:43.553Z,11.25
2022-09-11T06:34:10.916Z,12.40
2022-09-11T06:36:38.816Z,11.60
2022-09-11T06:39:06.820Z,11.52
2022-09-11T06:41:34.259Z,11.30
2022-09-11T06:44:01.618Z,11.25
2022-09-11T06:46:30.388Z,12.50
2022-09-11T06:48:57.755Z,10.80
2022-09-11T06:51:25.145Z,11.50
2022-09-11T06:53:55.071Z,11.02
2022-09-11T06:56:23.158Z,10.77
2022-09-11T06:58:50.523Z,10.75
2022-09-11T07:01:18.617Z,10.98
2022-09-11T07:03:48.353Z,10.82
2022-09-11T07:06:16.541Z,10.60
2022-09-11T07:08:44.054Z,10.85
2022-09-11T07:11:12.781Z,10.73
2022-09-11T07:13:40.585Z,10.55
2022-09-11T07:16:09.048Z,10.77
2022-09-11T07:18:36.972Z,11.25
2022-09-11T07:21:09.492Z,10.80
2022-09-11T07:23:36.875Z,9.68
2022-09-11T07:26:05.921Z,10.45
2022-09-11T07:28:33.279Z,10.32
2022-09-11T07:31:04.617Z,10.52
2022-09-11T07:33:32.011Z,10.20
2022-09-11T07:35:59.360Z,9.85
2022-09-11T07:38:29.919Z,10.40
2022-09-11T07:40:57.487Z,9.65
2022-09-11T07:43:24.922Z,10.38
2022-09-11T07:45:54.189Z,8.82
2022-09-11T07:48:21.523Z,9.25
2022-09-11T07:50:55.986Z,9.13
2022-09-11T07:53:23.419Z,9.85
2022-09-11T07:55:52.359Z,9.07
2022-09-11T07:58:19.712Z,9.20
2022-09-11T08:00:47.078Z,8.32
2022-09-11T08:03:14.854Z,8.60
2022-09-11T08:05:42.226Z,8.07
2022-09-11T08:08:09.636Z,7.82
2022-09-11T08:10:38.791Z,7.32
2022-09-11T08:13:09.573Z,7.85
2022-09-11T08:15:37.638Z,7.45
2022-09-11T08:18:05.248Z,7.20
2022-09-11T08:20:33.152Z,6.78
2022-09-11T08:23:00.511Z,7.15
2022-09-11T08:25:28.544Z,7.70
2022-09-11T08:27:55.908Z,6.75
2022-09-11T08:30:24.727Z,7.22
2022-09-11T08:32:52.103Z,6.43
2022-09-11T08:35:19.431Z,6.97
2022-09-11T08:37:46.815Z,6.40
2022-09-11T08:40:14.380Z,7.10
2022-09-11T08:42:42.302Z,6.32
2022-09-11T08:45:14.611Z,7.68
2022-09-11T08:47:45.967Z,6.45
2022-09-11T08:50:17.493Z,6.35
2022-09-11T08:52:45.160Z,6.47
2022-09-11T08:55:13.943Z,6.85
2022-09-11T08:57:44.631Z,6.18
2022-09-11T09:00:16.376Z,6.15
2022-09-11T09:02:57.291Z,6.95
2022-09-11T09:05:28.424Z,6.70
2022-09-11T09:08:01.542Z,6.32
2022-09-11T09:10:35.703Z,6.68
2022-09-11T09:13:09.971Z,5.55
2022-09-11T09:15:43.266Z,6.20
2022-09-11T09:18:15.822Z,6.45
2022-09-11T09:20:45.143Z,6.45
2022-09-11T09:23:14.756Z,6.57
2022-09-11T09:25:43.403Z,5.63
2022-09-11T09:28:15.850Z,6.70
2022-09-11T09:30:45.975Z,5.90
2022-09-11T09:33:21.367Z,6.10
2022-09-11T09:35:48.876Z,5.55
2022-09-11T09:38:20.296Z,6.82
2022-09-11T09:40:55.695Z,6.20
2022-09-11T09:43:25.699Z,5.72
2022-09-11T09:46:00.731Z,5.45
2022-09-11T09:48:32.316Z,6.43
2022-09-11T09:50:59.691Z,5.88
2022-09-11T09:53:30.322Z,5.15
2022-09-11T09:55:59.535Z,5.05
2022-09-11T09:58:29.627Z,4.78
2022-09-11T10:00:56.978Z,5.13
2022-09-11T10:03:25.099Z,5.55
2022-09-11T10:05:54.819Z,5.35
2022-09-11T10:08:26.694Z,5.18
2022-09-11T10:10:58.091Z,5.40
2022-09-11T10:13:28.189Z,5.40
2022-09-11T10:15:57.208Z,5.00
2022-09-11T10:18:40.053Z,5.15
2022-09-11T10:21:16.743Z,4.70
2022-09-11T10:23:45.813Z,5.45
2022-09-11T10:26:15.966Z,5.10
2022-09-11T10:28:43.474Z,4.63
2022-09-11T10:31:14.911Z,5.10
2022-09-11T10:33:42.946Z,5.10
2022-09-11T10:36:11.584Z,5.40
2022-09-11T10:38:48.162Z,5.90
2022-09-11T10:41:19.245Z,5.07
2022-09-11T10:43:48.775Z,5.78
2022-09-11T10:46:40.473Z,5.43
2022-09-11T10:49:10.015Z,5.00
2022-09-11T10:51:38.631Z,5.22
2022-09-11T10:54:13.510Z,6.05
2022-09-11T10:56:46.312Z,5.80
2022-09-11T10:59:17.115Z,5.65
2022-09-11T11:01:44.724Z,4.57
2022-09-11T11:04:12.575Z,4.68
2022-09-11T11:06:49.055Z,4.50
2022-09-11T11:09:24.260Z,4.30
2022-09-11T11:12:09.672Z,3.85
2022-09-11T11:15:03.811Z,4.32
2022-09-11T11:17:36.535Z,3.97
2022-09-11T11:20:11.634Z,3.35
2022-09-11T11:22:48.713Z,3.88
2022-09-11T11:25:21.295Z,4.43
2022-09-11T11:28:05.293Z,3.42
2022-09-11T11:30:37.648Z,4.93
2022-09-11T11:33:18.128Z,4.15
2022-09-11T11:35:50.195Z,3.78
2022-09-11T11:38:20.132Z,4.10
2022-09-11T11:40:50.824Z,4.05
2022-09-11T11:43:21.198Z,4.38
2022-09-11T11:45:50.737Z,4.30
2022-09-11T11:48:21.481Z,4.28
2022-09-11T11:50:50.505Z,4.25
2022-09-11T11:53:21.616Z,4.35
2022-09-11T11:55:58.805Z,4.18
2022-09-11T11:58:34.451Z,5.05
2022-09-11T12:01:03.143Z,4.30
2022-09-11T12:03:34.372Z,4.55
2022-09-11T12:06:03.048Z,4.15
2022-09-11T12:08:30.426Z,3.40
2022-09-11T12:11:01.403Z,4.22
2022-09-11T12:13:31.357Z,4.38
2022-09-11T12:16:02.055Z,4.50
2022-09-11T12:18:29.557Z,3.95
2022-09-11T12:21:11.791Z,4.57
2022-09-11T12:23:54.002Z,3.92
2022-09-11T12:26:23.216Z,3.60
2022-09-11T12:28:51.534Z,3.53
2022-09-11T12:31:19.381Z,3.08
2022-09-11T12:33:51.884Z,3.00
2022-09-11T12:36:23.439Z,2.88
2022-09-11T12:38:52.806Z,3.17
2022-09-11T12:41:24.099Z,3.60
2022-09-11T12:43:51.614Z,3.25
2022-09-11T12:46:37.786Z,3.17
2022-09-11T12:49:22.058Z,2.80
2022-09-11T12:51:52.718Z,3.35
2022-09-11T12:54:23.326Z,3.17
2022-09-11T12:56:53.955Z,3.42
2022-09-11T12:59:24.117Z,2.85
2022-09-11T13:01:52.039Z,3.22
2022-09-11T13:04:21.772Z,3.00
2022-09-11T13:06:51.831Z,3.33
2022-09-11T13:09:21.969Z,3.20
2022-09-11T13:11:50.586Z,3.10
2022-09-11T13:14:35.731Z,2.78
2022-09-11T13:17:12.460Z,2.65
2022-09-11T13:19:40.191Z,2.70
2022-09-11T13:22:21.214Z,2.72
2022-09-11T13:24:48.758Z,2.45
2022-09-11T13:27:18.853Z,2.33
2022-09-11T13:29:48.562Z,2.40
2022-09-11T13:32:17.991Z,2.40
2022-09-11T13:34:46.361Z,2.60
2022-09-11T13:37:15.565Z,2.60
2022-09-11T13:39:43.733Z,2.75
2022-09-11T13:42:15.994Z,2.60
2022-09-11T13:44:44.527Z,2.10
2022-09-11T13:47:19.386Z,2.50
2022-09-11T13:49:47.580Z,2.30
2022-09-11T13:52:15.756Z,2.45
2022-09-11T13:54:45.364Z,2.53
2022-09-11T13:57:14.079Z,2.78
2022-09-11T13:59:46.198Z,2.53
2022-09-11T14:02:28.477Z,2.70
2022-09-11T14:05:00.431Z,2.80
2022-09-11T14:07:28.131Z,2.80
2022-09-11T14:09:59.397Z,2.63
2022-09-11T14:12:27.082Z,2.30
2022-09-11T14:14:55.578Z,2.00
2022-09-11T14:17:23.087Z,1.90
2022-09-11T14:19:55.685Z,1.52
2022-09-11T14:22:27.475Z,1.75
2022-09-11T14:24:56.628Z,1.50
2022-09-11T14:27:39.451Z,1.40
2022-09-11T14:32:36.811Z,1.52
2022-09-11T14:35:07.169Z,1.50
2022-09-11T14:37:36.558Z,1.40
2022-09-11T14:40:06.670Z,1.42
2022-09-11T14:42:35.704Z,1.40
2022-09-11T14:45:08.649Z,1.20
2022-09-11T14:47:36.454Z,1.52
2022-09-11T14:50:06.738Z,1.50
2022-09-11T14:52:35.204Z,1.60
2022-09-11T14:55:02.951Z,1.45
2022-09-11T14:57:31.957Z,1.38
2022-09-11T15:00:00.179Z,1.45
2022-09-11T15:02:28.434Z,1.42
2022-09-11T15:04:56.919Z,1.63
2022-09-11T15:07:26.986Z,1.60
2022-09-11T15:09:54.880Z,1.50
2022-09-11T15:12:22.281Z,1.63
2022-09-11T15:14:57.189Z,1.50
2022-09-11T15:17:25.826Z,1.60
2022-09-11T15:19:53.539Z,1.45
2022-09-11T15:22:20.929Z,1.50
2022-09-11T15:24:49.672Z,1.98
2022-09-11T15:27:17.252Z,1.77
2022-09-11T15:29:46.098Z,2.00
2022-09-11T15:32:14.326Z,1.90
2022-09-11T15:34:42.023Z,2.20
2022-09-11T15:37:09.391Z,2.25
2022-09-11T15:39:36.796Z,2.50
2022-09-11T15:42:06.207Z,2.53
2022-09-11T15:44:35.422Z,1.80
2022-09-11T15:47:06.114Z,1.50
2022-09-11T15:49:34.603Z,2.13
2022-09-11T15:52:02.838Z,1.80
2022-09-11T15:54:30.917Z,2.03
2022-09-11T15:56:58.334Z,2.17
2022-09-11T15:59:27.024Z,2.33
2022-09-11T16:01:54.410Z,2.33
2022-09-11T16:04:22.996Z,2.38
2022-09-11T16:06:50.783Z,2.22
2022-09-11T16:09:19.454Z,2.50
2022-09-11T16:11:47.939Z,2.50
2022-09-11T16:14:17.450Z,2.20
2022-09-11T16:16:47.168Z,2.55
2022-09-11T16:19:14.652Z,2.72
2022-09-11T16:21:41.998Z,2.60
2022-09-11T16:24:09.909Z,2.60
2022-09-11T16:26:38.226Z,2.50
2022-09-11T16:29:07.304Z,2.42
2022-09-11T16:31:34.722Z,2.70
2022-09-11T16:34:04.962Z,3.15
2022-09-11T16:36:38.249Z,2.42
2022-09-11T16:39:06.483Z,2.58
2022-09-11T16:41:34.047Z,2.83
2022-09-11T16:44:01.610Z,2.60
2022-09-11T16:46:28.994Z,2.53
2022-09-11T16:49:01.054Z,2.75
2022-09-11T16:51:30.699Z,3.10
2022-09-11T16:53:58.119Z,2.20
2022-09-11T16:56:27.195Z,2.22
2022-09-11T16:58:54.606Z,2.83
2022-09-11T17:01:22.489Z,2.65
2022-09-11T17:03:50.943Z,2.90
2022-09-11T17:06:20.093Z,3.35
2022-09-11T17:08:50.560Z,3.30
2022-09-11T17:11:18.656Z,3.75
2022-09-11T17:13:46.083Z,3.08
2022-09-11T17:16:16.542Z,3.08
2022-09-11T17:18:45.748Z,3.10
2022-09-11T17:21:13.131Z,3.70
2022-09-11T17:23:40.509Z,3.17
2022-09-11T17:26:09.688Z,3.72
2022-09-11T17:28:37.420Z,3.15
2022-09-11T17:31:07.694Z,3.38
2022-09-11T17:33:35.461Z,3.85
2022-09-11T17:36:03.011Z,3.65
2022-09-11T17:38:30.415Z,3.42
2022-09-11T17:40:58.025Z,4.03
2022-09-11T17:43:27.058Z,4.07
2022-09-11T17:46:00.910Z,3.65
2022-09-11T17:48:29.672Z,3.45
2022-09-11T17:51:07.133Z,3.92
2022-09-11T17:53:38.230Z,3.88
2022-09-11T17:56:07.298Z,3.58
2022-09-11T17:58:36.892Z,3.78
2022-09-11T18:01:04.395Z,4.03
2022-09-11T18:03:32.206Z,4.40
2022-09-11T18:06:00.508Z,4.15
2022-09-11T18:08:28.974Z,4.10
2022-09-11T18:10:58.788Z,4.80
2022-09-11T18:13:26.887Z,4.50
2022-09-11T18:15:56.166Z,4.20
2022-09-11T18:18:24.471Z,4.95
2022-09-11T18:20:53.959Z,4.25
2022-09-11T18:23:22.268Z,4.50
2022-09-11T18:25:50.107Z,4.25
2022-09-11T18:28:19.900Z,4.45
2022-09-11T18:30:47.696Z,4.70
2022-09-11T18:33:17.389Z,4.47
2022-09-11T18:35:45.621Z,5.45
2022-09-11T18:38:13.019Z,4.90
2022-09-11T18:40:40.376Z,4.90
2022-09-11T18:43:08.756Z,4.63
2022-09-11T18:45:36.435Z,5.18
2022-09-11T18:48:04.057Z,5.20
2022-09-11T18:50:32.792Z,4.93
2022-09-11T18:53:00.314Z,5.85
2022-09-11T18:55:29.012Z,5.70
2022-09-11T18:57:57.155Z,5.22
2022-09-11T19:00:24.536Z,5.78
2022-09-11T19:02:55.564Z,5.63
2022-09-11T19:05:23.998Z,5.72
2022-09-11T19:07:52.727Z,6.70
2022-09-11T19:10:20.191Z,6.78
2022-09-11T19:12:48.527Z,7.15
2022-09-11T19:15:16.312Z,7.18
2022-09-11T19:17:47.752Z,7.88
2022-09-11T19:20:16.391Z,9.23
2022-09-11T19:22:44.282Z,8.77
2022-09-11T19:25:13.816Z,8.05
2022-09-11T19:27:41.961Z,7.85
2022-09-11T19:30:09.688Z,8.45
2022-09-11T19:32:37.470Z,7.93
2022-09-11T19:35:05.828Z,9.25
2022-09-11T19:37:33.550Z,9.48
2022-09-11T19:40:00.949Z,8.57
2022-09-11T19:42:29.717Z,8.35
2022-09-11T19:44:57.089Z,9.10
2022-09-11T19:47:24.847Z,8.65
2022-09-11T19:49:52.867Z,10.07
2022-09-11T19:52:20.232Z,9.65
2022-09-11T19:54:47.579Z,9.10
2022-09-11T19:57:14.931Z,9.07
2022-09-11T19:59:43.622Z,9.52
2022-09-11T20:02:11.853Z,8.73
2022-09-11T20:04:39.291Z,10.75
2022-09-11T20:07:06.662Z,8.88
2022-09-11T20:09:34.041Z,9.80
2022-09-11T20:12:01.802Z,10.85
2022-09-11T20:14:29.531Z,9.68
2022-09-11T20:16:58.211Z,9.60
2022-09-11T20:19:25.702Z,9.10
2022-09-11T20:21:53.088Z,9.65
2022-09-11T20:24:20.451Z,9.93
2022-09-11T20:26:47.815Z,8.80
2022-09-11T20:29:15.921Z,9.88
2022-09-11T20:31:48.911Z,9.00
2022-09-11T20:34:18.229Z,9.13
2022-09-11T20:36:45.899Z,9.52
2022-09-11T20:39:13.980Z,10.68
2022-09-11T20:41:41.383Z,10.20
2022-09-11T20:44:09.096Z,10.73
2022-09-11T20:46:36.533Z,10.63
2022-09-11T20:49:05.010Z,10.77
2022-09-11T20:51:34.083Z,10.32
2022-09-11T20:54:01.478Z,10.65
2022-09-11T20:56:29.008Z,10.75
2022-09-11T20:58:56.497Z,11.20
2022-09-11T21:01:24.966Z,9.60
2022-09-11T21:03:53.287Z,10.43
2022-09-11T21:06:25.553Z,11.07
2022-09-11T21:08:55.353Z,11.20
2022-09-11T21:11:22.840Z,10.27
2022-09-11T21:13:50.178Z,10.70
2022-09-11T21:16:18.250Z,9.07
2022-09-11T21:18:46.335Z,9.27
2022-09-11T21:21:13.699Z,9.05
2022-09-11T21:23:41.042Z,9.68
2022-09-11T21:26:10.299Z,9.40
2022-09-11T21:28:37.715Z,9.05
2022-09-11T21:31:05.541Z,8.43
2022-09-11T21:33:33.508Z,8.43
2022-09-11T21:36:01.170Z,9.48
2022-09-11T21:38:29.467Z,9.23
2022-09-11T21:40:57.484Z,9.88
2022-09-11T21:43:26.281Z,9.40
2022-09-11T21:45:53.801Z,9.70
2022-09-11T21:48:21.135Z,10.63
2022-09-11T21:50:48.663Z,9.50
2022-09-11T21:53:16.014Z,9.55
2022-09-11T21:55:44.252Z,9.55
2022-09-11T21:58:14.115Z,9.00
2022-09-11T22:00:43.476Z,10.00
2022-09-11T22:03:11.958Z,9.30
2022-09-11T22:05:39.977Z,10.10
2022-09-11T22:08:07.300Z,8.85
2022-09-11T22:10:34.661Z,9.50
2022-09-11T22:13:02.032Z,8.07
2022-09-11T22:15:29.405Z,9.10
2022-09-11T22:17:58.103Z,8.55
2022-09-11T22:20:26.203Z,7.85
2022-09-11T22:22:56.335Z,8.98
2022-09-11T22:25:23.744Z,8.15
2022-09-11T22:27:51.144Z,7.43
2022-09-11T22:30:18.668Z,7.35
2022-09-11T22:32:46.019Z,7.63
2022-09-11T22:35:14.876Z,7.45
2022-09-11T22:37:42.233Z,7.88
2022-09-11T22:40:10.300Z,8.00
2022-09-11T22:42:37.794Z,7.93
2022-09-11T22:45:05.600Z,7.75
2022-09-11T22:47:33.692Z,7.57
2022-09-11T22:50:01.039Z,7.13
2022-09-11T22:52:29.922Z,6.78
2022-09-11T22:54:57.298Z,7.95
2022-09-11T22:57:28.871Z,7.95
2022-09-11T22:59:56.880Z,7.50
2022-09-11T23:02:27.397Z,6.65
2022-09-11T23:05:08.755Z,6.85
2022-09-11T23:07:38.357Z,7.38
2022-09-11T23:10:06.179Z,5.50
2022-09-11T23:12:33.595Z,5.85
2022-09-11T23:15:02.956Z,5.57
2022-09-11T23:17:30.318Z,5.38
2022-09-11T23:19:57.684Z,4.70
2022-09-11T23:22:26.765Z,4.93
2022-09-11T23:24:55.449Z,5.30
2022-09-11T23:27:22.825Z,4.78
2022-09-11T23:29:50.176Z,5.05
2022-09-11T23:32:17.514Z,5.10
2022-09-11T23:34:44.894Z,4.85
2022-09-11T23:37:12.299Z,4.47
2022-09-11T23:39:39.722Z,5.22
2022-09-11T23:42:08.556Z,4.90
2022-09-11T23:44:35.931Z,4.80
2022-09-11T23:47:03.285Z,5.55
2022-09-11T23:49:35.522Z,5.88
2022-09-11T23:52:03.951Z,5.35
2022-09-11T23:54:31.301Z,5.28
2022-09-11T23:56:59.035Z,4.65
2022-09-11T23:59:27.913Z,4.85
